createdAt,value
2019-03-01T00:01:05.027Z,25.08
2019-03-01T00:03:34.833Z,27.40
2019-03-01T00:06:15.982Z,25.95
2019-03-01T00:09:22.074Z,27.93
2019-03-01T00:11:56.816Z,27.13
2019-03-01T00:15:01.649Z,24.67
2019-03-01T00:17:42.359Z,25.60
2019-03-01T00:20:25.799Z,26.97
2019-03-01T00:23:18.218Z,26.50
2019-03-01T00:26:11.031Z,26.07
2019-03-01T00:28:51.728Z,26.05
2019-03-01T00:31:35.462Z,25.50
2019-03-01T00:34:10.060Z,25.72
2019-03-01T00:36:53.529Z,26.15
2019-03-01T00:39:36.967Z,25.80
2019-03-01T00:42:21.242Z,26.95
2019-03-01T00:44:50.111Z,27.13
2019-03-01T00:47:18.933Z,28.85
2019-03-01T00:49:47.705Z,29.92
2019-03-01T00:52:16.482Z,31.10
2019-03-01T00:54:45.263Z,33.78
2019-03-01T00:57:14.015Z,32.78
2019-03-01T00:59:42.767Z,31.00
2019-03-01T01:02:11.525Z,28.17
2019-03-01T01:04:40.288Z,26.12
2019-03-01T01:07:09.037Z,26.30
2019-03-01T01:09:37.779Z,25.88
2019-03-01T01:12:06.548Z,25.10
2019-03-01T01:14:35.326Z,25.55
2019-03-01T01:17:04.082Z,26.42
2019-03-01T01:19:32.825Z,27.48
2019-03-01T01:22:01.613Z,25.90
2019-03-01T01:24:30.379Z,27.13
2019-03-01T01:26:59.260Z,26.35
2019-03-01T01:29:28.020Z,26.80
2019-03-01T01:31:56.783Z,27.55
2019-03-01T01:34:25.557Z,28.57
2019-03-01T01:36:54.307Z,28.15
2019-03-01T01:39:23.221Z,28.07
2019-03-01T01:41:51.956Z,28.38
2019-03-01T01:44:20.741Z,28.65
2019-03-01T01:46:49.523Z,28.70
2019-03-01T01:49:18.923Z,29.90
2019-03-01T01:51:47.672Z,28.55
2019-03-01T01:54:16.533Z,27.73
2019-03-01T01:56:45.326Z,28.52
2019-03-01T01:59:14.080Z,27.87
2019-03-01T02:01:42.900Z,26.73
2019-03-01T02:04:11.752Z,25.30
2019-03-01T02:06:40.500Z,27.35
2019-03-01T02:09:21.790Z,28.73
2019-03-01T02:11:50.557Z,28.77
2019-03-01T02:14:19.363Z,27.25
2019-03-01T02:16:48.179Z,27.17
2019-03-01T02:19:16.939Z,27.48
2019-03-01T02:21:45.666Z,27.22
2019-03-01T02:24:14.437Z,25.25
2019-03-01T02:26:43.264Z,25.10
2019-03-01T02:29:12.027Z,27.80
2019-03-01T02:31:43.425Z,28.95
2019-03-01T02:34:12.156Z,25.55
2019-03-01T02:36:40.910Z,27.93
2019-03-01T02:39:09.688Z,25.05
2019-03-01T02:41:38.614Z,27.48
2019-03-01T02:44:07.421Z,26.93
2019-03-01T02:46:36.185Z,29.00
2019-03-01T02:49:05.039Z,27.85
2019-03-01T02:51:33.829Z,27.48
2019-03-01T02:54:02.925Z,24.75
2019-03-01T02:56:31.657Z,27.93
2019-03-01T02:59:00.485Z,26.15
2019-03-01T03:01:29.215Z,24.87
2019-03-01T03:03:57.990Z,26.70
2019-03-01T03:06:28.499Z,23.18
2019-03-01T03:08:57.318Z,24.63
2019-03-01T03:11:26.153Z,25.32
2019-03-01T03:13:54.908Z,23.73
2019-03-01T03:16:23.749Z,26.05
2019-03-01T03:18:52.822Z,23.65
2019-03-01T03:21:21.554Z,24.25
2019-03-01T03:23:50.561Z,23.80
2019-03-01T03:26:22.863Z,26.85
2019-03-01T03:28:51.623Z,23.75
2019-03-01T03:31:20.625Z,25.02
2019-03-01T03:33:49.481Z,24.47
2019-03-01T03:36:18.284Z,25.37
2019-03-01T03:38:47.045Z,23.98
2019-03-01T03:41:15.794Z,24.30
2019-03-01T03:43:44.555Z,25.05
2019-03-01T03:46:13.322Z,26.48
2019-03-01T03:48:42.134Z,28.38
2019-03-01T03:51:10.883Z,25.77
2019-03-01T03:53:39.632Z,26.75
2019-03-01T03:56:08.382Z,25.65
2019-03-01T03:58:37.121Z,26.27
2019-03-01T04:01:05.901Z,25.60
2019-03-01T04:03:34.737Z,26.70
2019-03-01T04:06:03.627Z,24.50
2019-03-01T04:08:32.662Z,25.68
2019-03-01T04:11:01.503Z,26.33
2019-03-01T04:13:30.253Z,26.33
2019-03-01T04:15:58.980Z,26.40
2019-03-01T04:18:27.769Z,27.15
2019-03-01T04:20:56.516Z,25.68
2019-03-01T04:23:25.546Z,26.42
2019-03-01T04:25:54.632Z,27.40
2019-03-01T04:28:23.418Z,25.97
2019-03-01T04:30:52.155Z,25.95
2019-03-01T04:33:20.939Z,26.05
2019-03-01T04:35:49.779Z,27.45
2019-03-01T04:38:18.563Z,24.12
2019-03-01T04:40:47.297Z,26.05
2019-03-01T04:43:16.066Z,30.10
2019-03-01T04:45:44.909Z,25.52
2019-03-01T04:48:13.682Z,23.90
2019-03-01T04:50:42.411Z,24.75
2019-03-01T04:53:11.189Z,26.70
2019-03-01T04:55:39.916Z,25.92
2019-03-01T04:58:08.710Z,26.10
2019-03-01T05:00:37.550Z,27.98
2019-03-01T05:03:06.367Z,22.73
2019-03-01T05:05:35.120Z,25.05
2019-03-01T05:08:03.860Z,21.77
2019-03-01T05:10:32.650Z,25.62
2019-03-01T05:13:01.472Z,22.80
2019-03-01T05:15:30.223Z,24.65
2019-03-01T05:17:58.993Z,24.35
2019-03-01T05:20:29.783Z,24.80
2019-03-01T05:22:58.223Z,25.97
2019-03-01T05:25:26.980Z,26.33
2019-03-01T05:27:55.756Z,26.07
2019-03-01T05:30:24.517Z,28.95
2019-03-01T05:32:53.261Z,28.65
2019-03-01T05:35:22.092Z,31.68
2019-03-01T05:37:50.846Z,30.60
2019-03-01T05:40:19.596Z,33.13
2019-03-01T05:42:48.583Z,34.50
2019-03-01T05:45:25.725Z,33.33
2019-03-01T05:47:54.464Z,35.13
2019-03-01T05:50:23.243Z,33.53
2019-03-01T05:52:51.982Z,57.93
2019-03-01T05:55:21.062Z,35.85
2019-03-01T05:58:21.251Z,35.63
2019-03-01T06:00:51.277Z,34.58
2019-03-01T06:03:37.242Z,35.08
2019-03-01T06:06:06.298Z,38.25
2019-03-01T06:08:46.294Z,39.13
2019-03-01T06:11:18.143Z,35.23
2019-03-01T06:13:55.805Z,35.75
2019-03-01T06:16:30.265Z,35.48
2019-03-01T06:19:02.142Z,36.75
2019-03-01T06:21:56.127Z,36.45
2019-03-01T06:24:36.812Z,35.90
2019-03-01T06:27:17.419Z,36.28
2019-03-01T06:29:51.989Z,37.98
2019-03-01T06:32:44.610Z,34.38
2019-03-01T06:35:25.402Z,38.53
2019-03-01T06:38:16.937Z,36.88
2019-03-01T06:41:16.983Z,36.38
2019-03-01T06:44:04.888Z,36.65
2019-03-01T06:46:36.721Z,36.40
2019-03-01T06:49:07.182Z,37.05
2019-03-01T06:51:35.949Z,39.48
2019-03-01T06:54:04.761Z,41.37
2019-03-01T06:56:33.581Z,36.10
2019-03-01T06:59:02.366Z,38.55
2019-03-01T07:01:31.382Z,39.42
2019-03-01T07:04:02.049Z,38.05
2019-03-01T07:06:30.930Z,40.35
2019-03-01T07:08:59.732Z,40.38
2019-03-01T07:11:28.530Z,39.48
2019-03-01T07:13:57.322Z,41.13
2019-03-01T07:16:26.683Z,40.15
2019-03-01T07:18:55.592Z,39.05
2019-03-01T07:21:24.367Z,40.75
2019-03-01T07:23:53.272Z,37.50
2019-03-01T07:26:22.101Z,38.83
2019-03-01T07:28:50.891Z,39.67
2019-03-01T07:31:19.705Z,38.10
2019-03-01T07:33:48.477Z,41.23
2019-03-01T07:36:17.249Z,38.23
2019-03-01T07:38:46.037Z,39.25
2019-03-01T07:41:14.796Z,40.98
2019-03-01T07:43:43.594Z,41.33
2019-03-01T07:46:12.452Z,41.53
2019-03-01T07:48:41.491Z,45.63
2019-03-01T07:51:10.318Z,42.78
2019-03-01T07:53:41.822Z,45.38
2019-03-01T07:56:09.597Z,43.80
2019-03-01T07:58:38.348Z,45.10
2019-03-01T08:01:07.146Z,48.42
2019-03-01T08:03:35.978Z,46.83
2019-03-01T08:06:04.989Z,46.58
2019-03-01T08:08:34.818Z,46.18
2019-03-01T08:11:04.190Z,49.98
2019-03-01T08:13:32.973Z,55.20
2019-03-01T08:16:01.914Z,49.90
2019-03-01T08:18:30.729Z,50.10
2019-03-01T08:20:59.475Z,51.28
2019-03-01T08:23:31.613Z,50.05
2019-03-01T08:25:59.915Z,50.35
2019-03-01T08:28:28.853Z,49.10
2019-03-01T08:30:57.705Z,49.80
2019-03-01T08:33:26.472Z,41.83
2019-03-01T08:35:55.257Z,32.90
2019-03-01T08:38:25.459Z,32.10
2019-03-01T08:40:54.603Z,32.20
2019-03-01T08:43:23.415Z,32.98
2019-03-01T08:45:52.199Z,31.60
2019-03-01T08:48:20.975Z,32.70
2019-03-01T08:50:49.716Z,31.10
2019-03-01T08:53:18.805Z,33.98
2019-03-01T08:55:47.585Z,35.20
2019-03-01T08:58:16.445Z,32.98
2019-03-01T09:00:47.426Z,35.33
2019-03-01T09:03:31.101Z,32.38
2019-03-01T09:05:59.985Z,38.80
2019-03-01T09:08:28.721Z,46.13
2019-03-01T09:10:57.540Z,48.90
2019-03-01T09:13:26.374Z,49.63
2019-03-01T09:15:55.160Z,51.80
2019-03-01T09:18:23.912Z,48.85
2019-03-01T09:20:52.737Z,50.85
2019-03-01T09:23:26.445Z,49.00
2019-03-01T09:25:52.088Z,49.40
2019-03-01T09:28:21.142Z,52.03
2019-03-01T09:30:49.998Z,48.95
2019-03-01T09:33:21.579Z,46.05
2019-03-01T09:35:53.954Z,50.85
2019-03-01T09:38:22.735Z,49.65
2019-03-01T09:40:51.549Z,48.70
2019-03-01T09:43:20.333Z,48.92
2019-03-01T09:45:49.580Z,45.03
2019-03-01T09:48:18.471Z,46.80
2019-03-01T09:50:47.288Z,51.05
2019-03-01T09:53:16.084Z,49.35
2019-03-01T09:55:44.899Z,48.17
2019-03-01T09:58:13.737Z,50.45
2019-03-01T10:00:56.524Z,49.50
2019-03-01T10:03:24.674Z,50.15
2019-03-01T10:05:53.462Z,48.58
2019-03-01T10:08:22.289Z,46.55
2019-03-01T10:10:51.032Z,50.38
2019-03-01T10:13:19.815Z,47.50
2019-03-01T10:15:48.572Z,48.50
2019-03-01T10:18:17.414Z,46.58
2019-03-01T10:20:46.224Z,46.70
2019-03-01T10:23:15.030Z,42.78
2019-03-01T10:25:43.870Z,42.10
2019-03-01T10:28:12.677Z,40.63
2019-03-01T10:30:41.712Z,41.58
2019-03-01T10:33:10.533Z,39.45
2019-03-01T10:35:39.398Z,39.95
2019-03-01T10:38:08.231Z,38.63
2019-03-01T10:40:37.317Z,37.78
2019-03-01T10:43:06.072Z,40.78
2019-03-01T10:45:34.848Z,45.58
2019-03-01T10:48:03.719Z,44.30
2019-03-01T10:50:32.583Z,44.03
2019-03-01T10:53:01.358Z,41.15
2019-03-01T10:55:30.125Z,40.70
2019-03-01T10:57:58.927Z,43.87
2019-03-01T11:00:28.688Z,41.37
2019-03-01T11:02:58.138Z,44.20
2019-03-01T11:05:27.324Z,41.70
2019-03-01T11:07:58.893Z,41.92
2019-03-01T11:10:30.488Z,45.20
2019-03-01T11:12:59.364Z,45.92
2019-03-01T11:15:28.165Z,40.85
2019-03-01T11:17:57.049Z,40.50
2019-03-01T11:20:25.938Z,39.00
2019-03-01T11:22:54.764Z,37.85
2019-03-01T11:25:24.677Z,39.15
2019-03-01T11:27:53.625Z,38.00
2019-03-01T11:30:27.391Z,37.30
2019-03-01T11:32:56.190Z,36.53
2019-03-01T11:35:25.123Z,34.70
2019-03-01T11:37:54.128Z,35.95
2019-03-01T11:40:34.238Z,37.65
2019-03-01T11:43:03.261Z,36.15
2019-03-01T11:45:32.061Z,39.42
2019-03-01T11:48:00.826Z,37.42
2019-03-01T11:50:29.593Z,38.35
2019-03-01T11:52:58.412Z,41.00
2019-03-01T11:55:27.232Z,44.18
2019-03-01T11:57:56.022Z,41.30
2019-03-01T12:00:25.843Z,40.43
2019-03-01T12:02:54.627Z,41.85
2019-03-01T12:05:23.414Z,36.28
2019-03-01T12:07:52.240Z,37.55
2019-03-01T12:10:26.130Z,39.42
2019-03-01T12:12:54.906Z,42.08
2019-03-01T12:15:23.692Z,43.10
2019-03-01T12:17:52.457Z,42.23
2019-03-01T12:20:31.053Z,41.55
2019-03-01T12:22:59.884Z,39.38
2019-03-01T12:25:28.981Z,38.88
2019-03-01T12:27:57.779Z,39.25
2019-03-01T12:30:27.052Z,35.17
2019-03-01T12:32:55.829Z,35.08
2019-03-01T12:35:24.707Z,35.03
2019-03-01T12:37:53.559Z,33.15
2019-03-01T12:40:29.572Z,33.48
2019-03-01T12:42:58.411Z,31.75
2019-03-01T12:45:27.343Z,35.58
2019-03-01T12:47:56.116Z,33.58
2019-03-01T12:50:24.893Z,33.35
2019-03-01T12:52:53.676Z,34.10
2019-03-01T12:55:23.730Z,32.50
2019-03-01T12:57:52.533Z,30.95
2019-03-01T13:00:38.077Z,31.52
2019-03-01T13:03:08.986Z,33.10
2019-03-01T13:05:37.389Z,30.43
2019-03-01T13:08:06.131Z,32.75
2019-03-01T13:10:36.880Z,31.07
2019-03-01T13:13:08.387Z,24.85
2019-03-01T13:15:37.537Z,27.85
2019-03-01T13:18:09.733Z,26.97
2019-03-01T13:20:38.044Z,28.17
2019-03-01T13:23:07.195Z,27.48
2019-03-01T13:25:36.043Z,26.07
2019-03-01T13:28:04.973Z,25.43
2019-03-01T13:30:35.815Z,25.40
2019-03-01T13:33:04.346Z,23.10
2019-03-01T13:35:33.278Z,20.10
2019-03-01T13:38:03.707Z,19.23
2019-03-01T13:40:32.602Z,16.80
2019-03-01T13:43:01.491Z,16.55
2019-03-01T13:45:30.403Z,14.80
2019-03-01T13:47:59.196Z,36.50
2019-03-01T13:50:27.992Z,16.05
2019-03-01T13:52:56.787Z,12.80
2019-03-01T13:55:27.546Z,15.38
2019-03-01T13:57:56.106Z,16.27
2019-03-01T14:00:24.967Z,14.87
2019-03-01T14:02:53.768Z,13.98
2019-03-01T14:05:24.066Z,16.00
2019-03-01T14:07:56.727Z,13.48
2019-03-01T14:10:30.011Z,13.95
2019-03-01T14:12:58.893Z,11.70
2019-03-01T14:15:29.737Z,12.90
2019-03-01T14:18:01.151Z,12.73
2019-03-01T14:20:28.949Z,12.35
2019-03-01T14:22:57.761Z,12.80
2019-03-01T14:25:26.589Z,42.95
2019-03-01T14:27:55.378Z,24.30
2019-03-01T14:30:29.444Z,11.48
2019-03-01T14:32:57.750Z,11.90
2019-03-01T14:35:27.102Z,12.05
2019-03-01T14:37:56.083Z,11.33
2019-03-01T14:40:24.840Z,10.75
2019-03-01T14:42:53.620Z,11.85
2019-03-01T14:45:27.811Z,9.68
2019-03-01T14:47:56.737Z,10.78
2019-03-01T14:50:29.870Z,9.93
2019-03-01T14:52:59.920Z,9.55
2019-03-01T14:55:49.349Z,10.25
2019-03-01T14:58:23.889Z,9.60
2019-03-01T15:01:04.681Z,8.40
2019-03-01T15:03:35.303Z,9.80
2019-03-01T15:06:04.799Z,10.00
2019-03-01T15:08:33.817Z,8.15
2019-03-01T15:11:07.977Z,9.98
2019-03-01T15:13:36.008Z,9.50
2019-03-01T15:16:06.014Z,9.30
2019-03-01T15:18:35.292Z,8.80
2019-03-01T15:21:04.603Z,10.88
2019-03-01T15:23:33.349Z,9.83
2019-03-01T15:26:02.426Z,9.90
2019-03-01T15:28:31.248Z,8.60
2019-03-01T15:30:59.995Z,9.10
2019-03-01T15:33:28.769Z,8.23
2019-03-01T15:35:57.614Z,8.55
2019-03-01T15:38:27.583Z,8.25
2019-03-01T15:40:56.836Z,8.05
2019-03-01T15:43:26.524Z,11.83
2019-03-01T15:45:56.733Z,8.20
2019-03-01T15:48:25.618Z,8.85
2019-03-01T15:50:54.424Z,7.85
2019-03-01T15:53:25.053Z,9.20
2019-03-01T15:55:53.753Z,7.45
2019-03-01T15:58:22.492Z,6.80
2019-03-01T16:00:51.509Z,6.80
2019-03-01T16:03:20.262Z,8.10
2019-03-01T16:05:49.079Z,6.33
2019-03-01T16:08:18.259Z,6.15
2019-03-01T16:10:47.061Z,6.83
2019-03-01T16:13:15.877Z,8.70
2019-03-01T16:15:44.698Z,7.55
2019-03-01T16:18:13.511Z,7.75
2019-03-01T16:20:42.347Z,7.60
2019-03-01T16:23:11.237Z,6.50
2019-03-01T16:25:40.050Z,7.17
2019-03-01T16:28:08.868Z,6.28
2019-03-01T16:30:38.005Z,8.60
2019-03-01T16:33:07.018Z,7.45
2019-03-01T16:35:35.849Z,7.05
2019-03-01T16:38:05.210Z,7.53
2019-03-01T16:40:34.046Z,6.92
2019-03-01T16:43:02.885Z,6.60
2019-03-01T16:45:31.676Z,8.38
2019-03-01T16:48:00.985Z,8.00
2019-03-01T16:50:29.917Z,9.35
2019-03-01T16:53:04.258Z,6.85
2019-03-01T16:55:32.616Z,6.60
2019-03-01T16:58:06.849Z,5.90
2019-03-01T17:00:32.295Z,7.17
2019-03-01T17:03:09.769Z,6.83
2019-03-01T17:05:39.738Z,7.33
2019-03-01T17:08:08.611Z,8.18
2019-03-01T17:10:37.372Z,7.53
2019-03-01T17:13:06.150Z,7.20
2019-03-01T17:15:34.972Z,6.83
2019-03-01T17:18:03.740Z,7.30
2019-03-01T17:20:37.464Z,6.72
2019-03-01T17:23:03.794Z,7.90
2019-03-01T17:25:32.965Z,7.53
2019-03-01T17:28:01.740Z,7.35
2019-03-01T17:30:30.506Z,6.97
2019-03-01T17:32:59.247Z,8.35
2019-03-01T17:35:28.013Z,8.00
2019-03-01T17:37:56.801Z,6.75
2019-03-01T17:40:25.528Z,7.25
2019-03-01T17:42:56.567Z,7.40
2019-03-01T17:45:25.573Z,7.47
2019-03-01T17:47:55.373Z,6.87
2019-03-01T17:50:24.392Z,8.68
2019-03-01T17:52:53.121Z,8.58
2019-03-01T17:55:24.531Z,10.48
2019-03-01T17:57:53.545Z,7.50
2019-03-01T18:00:33.977Z,7.92
2019-03-01T18:03:03.014Z,8.18
2019-03-01T18:05:31.853Z,7.37
2019-03-01T18:08:03.593Z,8.75
2019-03-01T18:10:32.168Z,9.70
2019-03-01T18:13:01.783Z,8.88
2019-03-01T18:15:30.690Z,8.10
2019-03-01T18:17:59.533Z,8.60
2019-03-01T18:20:28.353Z,11.05
2019-03-01T18:22:59.311Z,10.25
2019-03-01T18:25:27.873Z,9.25
2019-03-01T18:27:56.674Z,9.35
2019-03-01T18:30:33.922Z,8.50
2019-03-01T18:33:02.755Z,8.00
2019-03-01T18:35:31.523Z,8.40
2019-03-01T18:38:00.389Z,8.73
2019-03-01T18:40:29.221Z,9.75
2019-03-01T18:42:58.007Z,9.28
2019-03-01T18:45:27.669Z,7.90
2019-03-01T18:47:56.521Z,8.48
2019-03-01T18:50:31.279Z,7.90
2019-03-01T18:53:03.844Z,7.97
2019-03-01T18:55:32.821Z,7.53
2019-03-01T18:58:01.654Z,7.60
2019-03-01T19:00:47.701Z,25.48
2019-03-01T19:03:16.497Z,7.95
2019-03-01T19:05:45.297Z,6.42
2019-03-01T19:08:14.317Z,8.00
2019-03-01T19:10:43.066Z,7.05
2019-03-01T19:13:12.511Z,7.62
2019-03-01T19:15:41.369Z,6.78
2019-03-01T19:18:10.112Z,6.62
2019-03-01T19:20:42.485Z,5.87
2019-03-01T19:23:11.682Z,6.70
2019-03-01T19:25:40.833Z,7.62
2019-03-01T19:28:09.669Z,6.22
2019-03-01T19:30:38.439Z,7.50
2019-03-01T19:33:07.252Z,6.20
2019-03-01T19:35:36.180Z,5.60
2019-03-01T19:38:04.961Z,6.97
2019-03-01T19:40:33.717Z,6.55
2019-03-01T19:43:02.530Z,6.30
2019-03-01T19:45:31.332Z,6.05
2019-03-01T19:48:03.268Z,5.62
2019-03-01T19:50:30.720Z,5.10
2019-03-01T19:52:59.465Z,5.37
2019-03-01T19:55:28.326Z,6.08
2019-03-01T19:57:57.700Z,5.15
2019-03-01T20:00:27.174Z,5.90
2019-03-01T20:02:55.961Z,6.30
2019-03-01T20:05:27.930Z,6.22
2019-03-01T20:07:58.084Z,5.92
2019-03-01T20:10:27.234Z,6.17
2019-03-01T20:12:56.035Z,6.33
2019-03-01T20:15:26.014Z,5.95
2019-03-01T20:17:54.768Z,6.60
2019-03-01T20:20:24.745Z,5.90
2019-03-01T20:22:54.276Z,5.90
2019-03-01T20:25:24.091Z,6.37
2019-03-01T20:27:52.863Z,6.50
2019-03-01T20:30:30.254Z,6.85
2019-03-01T20:32:56.518Z,6.90
2019-03-01T20:35:26.138Z,5.50
2019-03-01T20:37:55.554Z,5.45
2019-03-01T20:40:26.816Z,6.08
2019-03-01T20:42:56.021Z,4.85
2019-03-01T20:45:29.858Z,5.00
2019-03-01T20:47:58.762Z,5.65
2019-03-01T20:50:28.435Z,5.72
2019-03-01T20:52:57.185Z,7.47
2019-03-01T20:55:25.923Z,6.90
2019-03-01T20:57:54.652Z,5.70
2019-03-01T21:00:27.358Z,4.55
2019-03-01T21:02:56.976Z,4.78
2019-03-01T21:05:29.012Z,4.90
2019-03-01T21:07:56.189Z,5.62
2019-03-01T21:10:25.919Z,5.20
2019-03-01T21:12:54.803Z,4.65
2019-03-01T21:15:24.414Z,6.12
2019-03-01T21:17:57.121Z,5.25
2019-03-01T21:20:23.746Z,5.33
2019-03-01T21:22:52.468Z,4.40
2019-03-01T21:25:24.729Z,5.65
2019-03-01T21:27:53.457Z,4.72
2019-03-01T21:30:24.970Z,4.97
2019-03-01T21:32:53.822Z,4.95
2019-03-01T21:35:22.637Z,5.67
2019-03-01T21:37:52.046Z,5.00
2019-03-01T21:40:20.877Z,4.80
2019-03-01T21:42:52.878Z,5.00
2019-03-01T21:45:22.453Z,5.75
2019-03-01T21:47:51.405Z,5.22
2019-03-01T21:50:21.136Z,4.65
2019-03-01T21:52:49.913Z,5.58
2019-03-01T21:55:26.962Z,4.83
2019-03-01T21:57:54.032Z,5.83
2019-03-01T22:00:29.896Z,5.10
2019-03-01T22:02:57.448Z,6.45
2019-03-01T22:05:26.218Z,5.40
2019-03-01T22:07:54.945Z,4.95
2019-03-01T22:10:23.677Z,4.70
2019-03-01T22:12:52.469Z,5.55
2019-03-01T22:15:26.874Z,5.42
2019-03-01T22:17:56.200Z,5.55
2019-03-01T22:20:25.090Z,6.12
2019-03-01T22:22:54.121Z,6.17
2019-03-01T22:25:22.929Z,5.58
2019-03-01T22:27:51.663Z,5.10
2019-03-01T22:30:33.647Z,6.22
2019-03-01T22:33:02.440Z,6.30
2019-03-01T22:35:31.174Z,5.90
2019-03-01T22:38:01.152Z,5.42
2019-03-01T22:40:30.477Z,5.42
2019-03-01T22:42:59.261Z,6.40
2019-03-01T22:45:27.996Z,5.62
2019-03-01T22:47:56.775Z,6.33
2019-03-01T22:50:25.664Z,6.00
2019-03-01T22:52:54.668Z,6.25
2019-03-01T22:55:23.458Z,6.87
2019-03-01T22:57:52.275Z,5.40
2019-03-01T23:00:47.662Z,5.85
2019-03-01T23:03:18.806Z,5.85
2019-03-01T23:05:47.813Z,5.80
2019-03-01T23:08:16.574Z,6.20
2019-03-01T23:10:45.418Z,6.35
2019-03-01T23:13:16.958Z,5.75
2019-03-01T23:15:44.722Z,6.25
2019-03-01T23:18:13.601Z,6.65
2019-03-01T23:20:42.407Z,6.00
2019-03-01T23:23:11.250Z,6.60
2019-03-01T23:25:42.793Z,5.60
2019-03-01T23:28:11.376Z,5.40
2019-03-01T23:30:40.133Z,6.20
2019-03-01T23:33:08.902Z,5.97
2019-03-01T23:35:37.672Z,6.05
2019-03-01T23:38:06.414Z,5.65
2019-03-01T23:40:35.872Z,6.17
2019-03-01T23:43:05.484Z,5.65
2019-03-01T23:45:34.325Z,6.33
2019-03-01T23:48:03.102Z,5.40
2019-03-01T23:50:34.891Z,6.33
2019-03-01T23:53:02.413Z,5.67
2019-03-01T23:55:31.180Z,6.92
2019-03-01T23:58:06.038Z,5.92
